ROTAER D-AMDT 49/19 Ver Mudanças

Jacareacanga ( SBEK ) / JACAREACANGA, PA 06 14 07S/057 46 33W
AD PUB 3W UTC-3 IFR DIURNA L23 99 (325)

08 - ( 1600x30 ASPH 36/F/B/Y/U ) - 26

SBAZ (CINDACTA 4)
COM -
RÁDIO [3] 125.900
RDONAV -
VOR/DME JAC [1] 112.2 0614.14S/05746.23W
NDB JAC 360 0614.32S/05746.44W
MET -

[4] [6]

AIS - [2] [4] [5]
COMPL -
  • [1] VOR NO AVBL. SECT 280/290 além de 20NM BLW FL050
  • [2] Para informações adicionais consultar o Centro de Informações Aeronáuticas Amazônico (CAIS-AZ) TEL: (92)3652-5955
  • [3] (MON,TUE,WED,THU,FRI 1015-2145)
  • [4] Autoatendimento
  • [5] OPR INFRAERO
  • [6] Dúvidas sobre a utilização do portal www.redemet.aer.mil.br e demais informações consultar o Centro Integrado de Meteorologia Aeronáutica (CIMAER) pelos tel:(21) 2101-6865, (21) 2174-7305 ou (21) 2174-7306.
TEMP (0)

Suplementos AIP (2)

N0299 | 05/12/19 AUXÍLIO À NAVEGAÇÃO

- VOR/DME JAC 112.20MHZ/CH59X não utilizável. 

Período: De 05 de dezembro de 2019, 0000 UTC até 31 de dezembro de 2022, 2359 UTC.
Ref: AIP ENR 4.1 (RPLC SUP N100/18)

N0347 | 05/12/19 PISTA DE POUSO

- RWY 08/26 observar desagregação asfáltica.

Período: De 05 de dezembro de 2019, 0000 UTC até 31 de dezembro de 2021, 2359 UTC
Ref: AIP MAP ADC (RPLC N195/16)

NOTAM (2)

ATM

Z1958/18 N 07/11/2018 21:26
SID RETIRADO QUADRO DE RMK AS INFO DE MNM PARA DEP
REF.: AIP-MAP: SID ALAL - CARI - SETA

G0252/20 R G0249/20 12/02/2020 11:48
AFIS JACAREACANGA AVBL ANTECIPACAO OU PRORROGACAO O/R PELO TELEFONE (93) 3542-1230,
MNM 24 HORAS ANTECEDÊNCIA, COMPULSORIA COOR E CONFIRMACAO DA AUTH, SALVO NOS CASOS:
1- SEGURANCA TFC AEREO
2- SEGURANCA DO ESTADO
3- SALVAMENTO DE VIDA HUMANA
4- ACFT TCF AEREO REGULAR E NAO REGULAR (EXC VOOS EXTRAS)


Nascer/Por do Sol

09:56

22:11


METAR

252100Z 24004KT 9999 FEW025TCU 31/24 Q1007= 2020022521 - SPECI SBEK 252145Z 01003KT 9999 FEW025TCU 29/26 Q1007=

TAF

TATE[HY000] [2002] php_network_getaddresses: getaddrinfo failed: Nome ou serviço desconhecido


Cartas (6)

ADC


IAC


SID



Rotas Preferenciais (0)